Pagrindinis puslapis
METAR-TAF:

METAR-TAF

Oro uostai :

Hyakuri, Japonija

platuma: 36-11N, ilguma: 140-25E, Aukštis: 32 m

Dabartinis oras

Ataskaita buvo paskelbta 36 minutes, ne 11:00 UTC
Vėjas 1 kt nuo kintamojo kryptimis
Temperatūra 2°C
Drėgmė 75%
Slėgis 1026 hPa
Matomumas 10 km arba daugiau
Mažai debesys ne aukštis 4000 ft
Su prošvaistėmis

METAR: RJAH 261100Z VRB01KT 9999 FEW040 BKN/// 02/M02 Q1026

Laikas: 20:36 (11:36 UTC)

Prognozė

Ataskaita buvo paskelbta 6 valandos ir 28 minutes, ne 05:08 UTC
Prognozė galioja nuo 26 metu 06 UTC su 27 metu 12 UTC
Vėjas 5 kt iš Šiaurės
Matomumas 10 km arba daugiau
Mažai debesys ne aukštis 3000 ft

TAF: RJAH 260508Z 2606/2712 36005KT 9999 FEW030

Orai ataskaitas ir orų prognozės (METAR, TAF).

turimą stotys yra geltonos ir raudonos taškus žemėlapyje.

Perkelti pele per norėdami pamatyti stoties vardą.

Tada spustelėkite, norėdami matyti oro stebėjimo ir prognozės.

Norėdami pakeisti žemėlapį: spustelėkite ant žalios mygtukų su juodo kryžiaus žemyn,; žalią mygtuką su brūkšneliu, jei norite nutolinti; arba žalių rodyklių gretimoms žemėlapius.


METAR-TAF: